sensor_id;sensor_type;location;lat;lon;timestamp;temperature;humidity
4097;DHT22;2062;50.694;7.246;2023-03-01T00:02:22;-0.90;41.10
4097;DHT22;2062;50.694;7.246;2023-03-01T00:04:49;-1.00;41.30
4097;DHT22;2062;50.694;7.246;2023-03-01T00:07:16;-1.00;41.30
4097;DHT22;2062;50.694;7.246;2023-03-01T00:09:42;-1.00;41.00
4097;DHT22;2062;50.694;7.246;2023-03-01T00:12:11;-1.00;41.90
4097;DHT22;2062;50.694;7.246;2023-03-01T00:14:38;-1.00;41.40
4097;DHT22;2062;50.694;7.246;2023-03-01T00:17:06;-1.10;41.60
4097;DHT22;2062;50.694;7.246;2023-03-01T00:19:33;-1.10;41.90
4097;DHT22;2062;50.694;7.246;2023-03-01T00:22:00;-1.10;41.90
4097;DHT22;2062;50.694;7.246;2023-03-01T00:24:27;-1.10;41.80
4097;DHT22;2062;50.694;7.246;2023-03-01T00:26:54;-1.20;41.70
4097;DHT22;2062;50.694;7.246;2023-03-01T00:29:22;-1.20;42.10
4097;DHT22;2062;50.694;7.246;2023-03-01T00:31:49;-1.20;42.50
4097;DHT22;2062;50.694;7.246;2023-03-01T00:34:17;-1.20;43.20
4097;DHT22;2062;50.694;7.246;2023-03-01T00:36:45;-1.20;42.60
4097;DHT22;2062;50.694;7.246;2023-03-01T00:39:13;-1.30;41.90
4097;DHT22;2062;50.694;7.246;2023-03-01T00:41:41;-1.30;41.90
4097;DHT22;2062;50.694;7.246;2023-03-01T00:44:08;-1.30;42.10
4097;DHT22;2062;50.694;7.246;2023-03-01T00:46:35;-1.30;42.80
4097;DHT22;2062;50.694;7.246;2023-03-01T00:49:02;-1.40;42.70
4097;DHT22;2062;50.694;7.246;2023-03-01T00:51:31;-1.40;42.50
4097;DHT22;2062;50.694;7.246;2023-03-01T00:54:02;-1.40;42.20
4097;DHT22;2062;50.694;7.246;2023-03-01T00:56:29;-1.40;42.90
4097;DHT22;2062;50.694;7.246;2023-03-01T00:58:56;-1.40;42.30
4097;DHT22;2062;50.694;7.246;2023-03-01T01:01:24;-1.50;42.40
4097;DHT22;2062;50.694;7.246;2023-03-01T01:03:54;-1.50;42.40
4097;DHT22;2062;50.694;7.246;2023-03-01T01:06:23;-1.50;42.80
4097;DHT22;2062;50.694;7.246;2023-03-01T01:08:52;-1.50;42.80
4097;DHT22;2062;50.694;7.246;2023-03-01T01:11:20;-1.50;42.90
4097;DHT22;2062;50.694;7.246;2023-03-01T01:13:48;-1.50;42.60
4097;DHT22;2062;50.694;7.246;2023-03-01T01:16:18;-1.50;42.70
4097;DHT22;2062;50.694;7.246;2023-03-01T01:18:45;-1.50;42.70
4097;DHT22;2062;50.694;7.246;2023-03-01T01:21:14;-1.60;42.90
4097;DHT22;2062;50.694;7.246;2023-03-01T01:23:42;-1.60;42.80
4097;DHT22;2062;50.694;7.246;2023-03-01T01:26:13;-1.60;43.10
4097;DHT22;2062;50.694;7.246;2023-03-01T01:28:40;-1.60;43.40
4097;DHT22;2062;50.694;7.246;2023-03-01T01:31:07;-1.60;43.70
4097;DHT22;2062;50.694;7.246;2023-03-01T01:33:34;-1.60;43.50
4097;DHT22;2062;50.694;7.246;2023-03-01T01:36:01;-1.60;43.60
4097;DHT22;2062;50.694;7.246;2023-03-01T01:38:28;-1.60;43.70
4097;DHT22;2062;50.694;7.246;2023-03-01T01:40:55;-1.70;43.80
4097;DHT22;2062;50.694;7.246;2023-03-01T01:43:25;-1.70;43.60
4097;DHT22;2062;50.694;7.246;2023-03-01T01:45:55;-1.70;43.40
4097;DHT22;2062;50.694;7.246;2023-03-01T01:48:27;-1.70;43.70
4097;DHT22;2062;50.694;7.246;2023-03-01T01:51:07;-1.70;43.50
4097;DHT22;2062;50.694;7.246;2023-03-01T01:53:37;-1.70;43.60
4097;DHT22;2062;50.694;7.246;2023-03-01T01:56:08;-1.70;43.70
4097;DHT22;2062;50.694;7.246;2023-03-01T01:58:37;-1.70;44.00
4097;DHT22;2062;50.694;7.246;2023-03-01T02:01:05;-1.70;43.40
4097;DHT22;2062;50.694;7.246;2023-03-01T02:03:33;-1.70;43.80
4097;DHT22;2062;50.694;7.246;2023-03-01T02:06:06;-1.70;43.30
4097;DHT22;2062;50.694;7.246;2023-03-01T02:08:37;-1.70;43.60
4097;DHT22;2062;50.694;7.246;2023-03-01T02:11:05;-1.70;43.20
4097;DHT22;2062;50.694;7.246;2023-03-01T02:13:33;-1.60;43.70
4097;DHT22;2062;50.694;7.246;2023-03-01T02:16:05;-1.60;43.20
4097;DHT22;2062;50.694;7.246;2023-03-01T02:18:34;-1.60;43.40
4097;DHT22;2062;50.694;7.246;2023-03-01T02:21:10;-1.60;43.10
4097;DHT22;2062;50.694;7.246;2023-03-01T02:23:39;-1.70;43.00
4097;DHT22;2062;50.694;7.246;2023-03-01T02:26:11;-1.60;43.10
4097;DHT22;2062;50.694;7.246;2023-03-01T02:28:44;-1.60;42.90
4097;DHT22;2062;50.694;7.246;2023-03-01T02:31:14;-1.70;42.90
4097;DHT22;2062;50.694;7.246;2023-03-01T02:34:00;-1.70;43.10
4097;DHT22;2062;50.694;7.246;2023-03-01T02:36:31;-1.70;43.40
4097;DHT22;2062;50.694;7.246;2023-03-01T02:39:02;-1.70;43.60
4097;DHT22;2062;50.694;7.246;2023-03-01T02:41:33;-1.70;43.60
4097;DHT22;2062;50.694;7.246;2023-03-01T02:44:02;-1.70;43.70
4097;DHT22;2062;50.694;7.246;2023-03-01T02:46:29;-1.70;43.90
4097;DHT22;2062;50.694;7.246;2023-03-01T02:48:58;-1.80;44.30
4097;DHT22;2062;50.694;7.246;2023-03-01T02:51:42;-1.80;44.00
4097;DHT22;2062;50.694;7.246;2023-03-01T02:54:20;-1.80;44.30
4097;DHT22;2062;50.694;7.246;2023-03-01T02:56:49;-1.80;44.20
4097;DHT22;2062;50.694;7.246;2023-03-01T02:59:20;-1.80;43.90
4097;DHT22;2062;50.694;7.246;2023-03-01T03:01:47;-1.80;43.70
4097;DHT22;2062;50.694;7.246;2023-03-01T03:04:16;-1.90;44.20
4097;DHT22;2062;50.694;7.246;2023-03-01T03:06:44;-1.90;44.50
4097;DHT22;2062;50.694;7.246;2023-03-01T03:09:12;-1.90;43.80
4097;DHT22;2062;50.694;7.246;2023-03-01T03:11:39;-1.90;43.90
4097;DHT22;2062;50.694;7.246;2023-03-01T03:14:06;-2.00;44.10
4097;DHT22;2062;50.694;7.246;2023-03-01T03:16:41;-1.90;44.20
4097;DHT22;2062;50.694;7.246;2023-03-01T03:19:09;-2.00;44.00
4097;DHT22;2062;50.694;7.246;2023-03-01T03:21:35;-2.00;44.10
4097;DHT22;2062;50.694;7.246;2023-03-01T03:24:03;-2.00;44.00
4097;DHT22;2062;50.694;7.246;2023-03-01T03:26:30;-2.00;44.20
4097;DHT22;2062;50.694;7.246;2023-03-01T03:28:57;-2.00;45.00
4097;DHT22;2062;50.694;7.246;2023-03-01T03:31:24;-2.00;44.20
4097;DHT22;2062;50.694;7.246;2023-03-01T03:33:52;-2.00;44.40
4097;DHT22;2062;50.694;7.246;2023-03-01T03:36:22;-2.10;44.20
4097;DHT22;2062;50.694;7.246;2023-03-01T03:38:49;-2.00;44.10
4097;DHT22;2062;50.694;7.246;2023-03-01T03:41:16;-2.00;44.30
4097;DHT22;2062;50.694;7.246;2023-03-01T03:43:43;-2.00;44.40
4097;DHT22;2062;50.694;7.246;2023-03-01T03:46:10;-2.00;44.30
4097;DHT22;2062;50.694;7.246;2023-03-01T03:48:39;-2.10;44.80
4097;DHT22;2062;50.694;7.246;2023-03-01T03:51:10;-2.00;44.40
4097;DHT22;2062;50.694;7.246;2023-03-01T03:53:37;-2.00;44.60
4097;DHT22;2062;50.694;7.246;2023-03-01T03:56:04;-2.00;44.70
4097;DHT22;2062;50.694;7.246;2023-03-01T03:58:31;-2.00;44.80
4097;DHT22;2062;50.694;7.246;2023-03-01T04:00:59;-2.00;44.70
4097;DHT22;2062;50.694;7.246;2023-03-01T04:03:27;-2.00;45.00
4097;DHT22;2062;50.694;7.246;2023-03-01T04:05:57;-2.00;44.50
4097;DHT22;2062;50.694;7.246;2023-03-01T04:08:26;-2.00;44.50
4097;DHT22;2062;50.694;7.246;2023-03-01T04:10:57;-2.00;44.40
4097;DHT22;2062;50.694;7.246;2023-03-01T04:13:24;-2.00;44.50
4097;DHT22;2062;50.694;7.246;2023-03-01T04:15:52;-2.00;44.70
4097;DHT22;2062;50.694;7.246;2023-03-01T04:18:23;-2.00;44.70
4097;DHT22;2062;50.694;7.246;2023-03-01T04:20:52;-2.00;44.70
4097;DHT22;2062;50.694;7.246;2023-03-01T04:23:21;-2.00;44.60
4097;DHT22;2062;50.694;7.246;2023-03-01T04:25:51;-2.00;45.00
4097;DHT22;2062;50.694;7.246;2023-03-01T04:28:21;-2.00;44.80
4097;DHT22;2062;50.694;7.246;2023-03-01T04:30:50;-2.00;44.70
4097;DHT22;2062;50.694;7.246;2023-03-01T04:33:17;-2.00;44.80
4097;DHT22;2062;50.694;7.246;2023-03-01T04:35:44;-2.00;45.00
4097;DHT22;2062;50.694;7.246;2023-03-01T04:38:11;-2.00;44.90
4097;DHT22;2062;50.694;7.246;2023-03-01T04:40:38;-2.00;45.30
4097;DHT22;2062;50.694;7.246;2023-03-01T04:43:10;-2.00;45.00
4097;DHT22;2062;50.694;7.246;2023-03-01T04:45:37;-2.00;45.20
4097;DHT22;2062;50.694;7.246;2023-03-01T04:48:05;-2.00;45.20
4097;DHT22;2062;50.694;7.246;2023-03-01T04:50:32;-2.00;45.10
4097;DHT22;2062;50.694;7.246;2023-03-01T04:52:59;-2.00;45.00
4097;DHT22;2062;50.694;7.246;2023-03-01T04:55:26;-2.10;45.20
4097;DHT22;2062;50.694;7.246;2023-03-01T04:57:53;-2.00;45.50
4097;DHT22;2062;50.694;7.246;2023-03-01T05:00:23;-2.00;45.30
4097;DHT22;2062;50.694;7.246;2023-03-01T05:02:52;-2.00;45.30
4097;DHT22;2062;50.694;7.246;2023-03-01T05:05:20;-2.10;45.40
4097;DHT22;2062;50.694;7.246;2023-03-01T05:07:55;-2.10;45.60
4097;DHT22;2062;50.694;7.246;2023-03-01T05:10:22;-2.10;45.20
4097;DHT22;2062;50.694;7.246;2023-03-01T05:12:50;-2.10;45.30
4097;DHT22;2062;50.694;7.246;2023-03-01T05:15:17;-2.10;46.00
4097;DHT22;2062;50.694;7.246;2023-03-01T05:17:49;-2.10;45.90
4097;DHT22;2062;50.694;7.246;2023-03-01T05:20:15;-2.10;45.80
4097;DHT22;2062;50.694;7.246;2023-03-01T05:22:42;-2.10;45.80
4097;DHT22;2062;50.694;7.246;2023-03-01T05:25:09;-2.10;45.60
4097;DHT22;2062;50.694;7.246;2023-03-01T05:27:36;-2.10;45.60
4097;DHT22;2062;50.694;7.246;2023-03-01T05:30:04;-2.10;46.00
4097;DHT22;2062;50.694;7.246;2023-03-01T05:32:40;-2.00;46.00
4097;DHT22;2062;50.694;7.246;2023-03-01T05:35:12;-2.00;45.80
4097;DHT22;2062;50.694;7.246;2023-03-01T05:37:41;-2.00;45.80
4097;DHT22;2062;50.694;7.246;2023-03-01T05:40:10;-2.00;45.90
4097;DHT22;2062;50.694;7.246;2023-03-01T05:42:42;-2.00;45.90
4097;DHT22;2062;50.694;7.246;2023-03-01T05:45:09;-2.00;46.00
4097;DHT22;2062;50.694;7.246;2023-03-01T05:47:38;-2.00;46.10
4097;DHT22;2062;50.694;7.246;2023-03-01T05:50:12;-2.00;45.80
4097;DHT22;2062;50.694;7.246;2023-03-01T05:52:39;-2.00;46.00
4097;DHT22;2062;50.694;7.246;2023-03-01T05:55:07;-1.90;46.30
4097;DHT22;2062;50.694;7.246;2023-03-01T05:57:34;-1.90;46.20
4097;DHT22;2062;50.694;7.246;2023-03-01T06:00:01;-1.90;46.40
4097;DHT22;2062;50.694;7.246;2023-03-01T06:02:28;-2.00;46.00
4097;DHT22;2062;50.694;7.246;2023-03-01T06:04:55;-1.90;46.00
4097;DHT22;2062;50.694;7.246;2023-03-01T06:07:23;-1.90;45.60
4097;DHT22;2062;50.694;7.246;2023-03-01T06:09:50;-1.90;45.40
4097;DHT22;2062;50.694;7.246;2023-03-01T06:12:17;-1.90;45.70
4097;DHT22;2062;50.694;7.246;2023-03-01T06:14:45;-2.00;45.60
4097;DHT22;2062;50.694;7.246;2023-03-01T06:17:13;-2.00;45.70
4097;DHT22;2062;50.694;7.246;2023-03-01T06:19:40;-2.00;46.00
4097;DHT22;2062;50.694;7.246;2023-03-01T06:22:07;-2.10;45.70
4097;DHT22;2062;50.694;7.246;2023-03-01T06:24:36;-2.00;45.90
4097;DHT22;2062;50.694;7.246;2023-03-01T06:27:02;-2.10;45.80
4097;DHT22;2062;50.694;7.246;2023-03-01T06:29:29;-2.10;46.00
4097;DHT22;2062;50.694;7.246;2023-03-01T06:31:57;-2.10;46.00
4097;DHT22;2062;50.694;7.246;2023-03-01T06:34:24;-2.10;46.00
4097;DHT22;2062;50.694;7.246;2023-03-01T06:36:51;-2.10;45.60
4097;DHT22;2062;50.694;7.246;2023-03-01T06:39:18;-2.20;45.60
4097;DHT22;2062;50.694;7.246;2023-03-01T06:41:46;-2.20;45.50
4097;DHT22;2062;50.694;7.246;2023-03-01T06:44:13;-2.20;45.30
4097;DHT22;2062;50.694;7.246;2023-03-01T06:46:40;-2.20;45.50
4097;DHT22;2062;50.694;7.246;2023-03-01T06:49:07;-2.20;46.20
4097;DHT22;2062;50.694;7.246;2023-03-01T06:51:35;-2.20;45.90
4097;DHT22;2062;50.694;7.246;2023-03-01T06:54:03;-2.20;45.90
4097;DHT22;2062;50.694;7.246;2023-03-01T06:56:30;-2.20;46.10
4097;DHT22;2062;50.694;7.246;2023-03-01T06:58:59;-2.30;45.90
4097;DHT22;2062;50.694;7.246;2023-03-01T07:01:26;-2.30;46.00
4097;DHT22;2062;50.694;7.246;2023-03-01T07:03:53;-2.30;46.00
4097;DHT22;2062;50.694;7.246;2023-03-01T07:06:20;-2.30;46.20
4097;DHT22;2062;50.694;7.246;2023-03-01T07:08:47;-2.30;46.20
4097;DHT22;2062;50.694;7.246;2023-03-01T07:11:14;-2.30;46.20
4097;DHT22;2062;50.694;7.246;2023-03-01T07:13:41;-2.30;46.40
4097;DHT22;2062;50.694;7.246;2023-03-01T07:16:09;-2.30;46.20
4097;DHT22;2062;50.694;7.246;2023-03-01T07:18:36;-2.30;46.30
4097;DHT22;2062;50.694;7.246;2023-03-01T07:21:06;-2.30;46.20
4097;DHT22;2062;50.694;7.246;2023-03-01T07:23:34;-2.30;46.10
4097;DHT22;2062;50.694;7.246;2023-03-01T07:26:01;-2.30;46.10
4097;DHT22;2062;50.694;7.246;2023-03-01T07:28:28;-2.20;46.90
4097;DHT22;2062;50.694;7.246;2023-03-01T07:30:54;-2.30;45.90
4097;DHT22;2062;50.694;7.246;2023-03-01T07:33:23;-2.20;45.90
4097;DHT22;2062;50.694;7.246;2023-03-01T07:35:56;-2.20;45.80
4097;DHT22;2062;50.694;7.246;2023-03-01T07:38:23;-2.20;46.00
4097;DHT22;2062;50.694;7.246;2023-03-01T07:40:49;-2.10;46.20
4097;DHT22;2062;50.694;7.246;2023-03-01T07:43:16;-2.10;46.00
4097;DHT22;2062;50.694;7.246;2023-03-01T07:45:43;-2.00;45.90
4097;DHT22;2062;50.694;7.246;2023-03-01T07:48:10;-1.90;45.90
4097;DHT22;2062;50.694;7.246;2023-03-01T07:50:38;-1.80;46.00
4097;DHT22;2062;50.694;7.246;2023-03-01T07:53:05;-1.80;46.10
4097;DHT22;2062;50.694;7.246;2023-03-01T07:55:32;-1.70;46.10
4097;DHT22;2062;50.694;7.246;2023-03-01T07:57:59;-1.60;46.80
4097;DHT22;2062;50.694;7.246;2023-03-01T08:00:26;-1.50;47.10
4097;DHT22;2062;50.694;7.246;2023-03-01T08:02:53;-1.40;46.90
4097;DHT22;2062;50.694;7.246;2023-03-01T08:05:20;-1.30;47.20
4097;DHT22;2062;50.694;7.246;2023-03-01T08:07:48;-1.20;47.00
4097;DHT22;2062;50.694;7.246;2023-03-01T08:10:16;-1.10;47.10
4097;DHT22;2062;50.694;7.246;2023-03-01T08:12:43;-1.00;47.50
4097;DHT22;2062;50.694;7.246;2023-03-01T08:15:12;-0.80;47.40
4097;DHT22;2062;50.694;7.246;2023-03-01T08:17:38;-0.70;47.50
4097;DHT22;2062;50.694;7.246;2023-03-01T08:20:06;-0.60;47.40
4097;DHT22;2062;50.694;7.246;2023-03-01T08:22:33;-0.50;47.20
4097;DHT22;2062;50.694;7.246;2023-03-01T08:25:01;-0.40;47.30
4097;DHT22;2062;50.694;7.246;2023-03-01T08:27:28;-0.30;47.40
4097;DHT22;2062;50.694;7.246;2023-03-01T08:29:54;-0.20;47.50
4097;DHT22;2062;50.694;7.246;2023-03-01T08:32:21;-0.10;47.50
4097;DHT22;2062;50.694;7.246;2023-03-01T08:34:48;0.00;47.90
4097;DHT22;2062;50.694;7.246;2023-03-01T08:37:15;0.20;48.20
4097;DHT22;2062;50.694;7.246;2023-03-01T08:39:42;0.40;48.10
4097;DHT22;2062;50.694;7.246;2023-03-01T08:42:10;0.60;48.30
4097;DHT22;2062;50.694;7.246;2023-03-01T08:44:37;0.90;48.90
4097;DHT22;2062;50.694;7.246;2023-03-01T08:47:03;1.10;49.30
4097;DHT22;2062;50.694;7.246;2023-03-01T08:49:30;1.40;49.10
4097;DHT22;2062;50.694;7.246;2023-03-01T08:51:58;1.70;49.10
4097;DHT22;2062;50.694;7.246;2023-03-01T08:54:25;2.00;49.30
4097;DHT22;2062;50.694;7.246;2023-03-01T08:56:52;2.30;49.10
4097;DHT22;2062;50.694;7.246;2023-03-01T08:59:20;2.60;48.80
4097;DHT22;2062;50.694;7.246;2023-03-01T09:01:47;2.90;48.80
4097;DHT22;2062;50.694;7.246;2023-03-01T09:04:15;3.20;48.20
4097;DHT22;2062;50.694;7.246;2023-03-01T09:06:42;3.50;48.10
4097;DHT22;2062;50.694;7.246;2023-03-01T09:09:13;3.80;47.70
4097;DHT22;2062;50.694;7.246;2023-03-01T09:11:41;4.20;47.80
4097;DHT22;2062;50.694;7.246;2023-03-01T09:14:08;4.40;47.30
4097;DHT22;2062;50.694;7.246;2023-03-01T09:16:36;4.70;47.70
4097;DHT22;2062;50.694;7.246;2023-03-01T09:19:03;5.00;46.90
4097;DHT22;2062;50.694;7.246;2023-03-01T09:21:30;5.30;46.60
4097;DHT22;2062;50.694;7.246;2023-03-01T09:23:57;5.60;46.50
4097;DHT22;2062;50.694;7.246;2023-03-01T09:26:25;5.80;46.10
4097;DHT22;2062;50.694;7.246;2023-03-01T09:28:53;6.00;46.10
4097;DHT22;2062;50.694;7.246;2023-03-01T09:31:23;6.30;45.50
4097;DHT22;2062;50.694;7.246;2023-03-01T09:33:53;6.70;45.10
4097;DHT22;2062;50.694;7.246;2023-03-01T09:36:22;6.80;44.40
4097;DHT22;2062;50.694;7.246;2023-03-01T09:38:49;7.00;44.50
4097;DHT22;2062;50.694;7.246;2023-03-01T09:41:31;7.20;44.50
4097;DHT22;2062;50.694;7.246;2023-03-01T09:44:08;7.50;43.70
4097;DHT22;2062;50.694;7.246;2023-03-01T09:46:41;7.70;43.40
4097;DHT22;2062;50.694;7.246;2023-03-01T09:49:14;7.90;42.70
4097;DHT22;2062;50.694;7.246;2023-03-01T09:51:50;8.10;42.40
4097;DHT22;2062;50.694;7.246;2023-03-01T09:54:20;8.20;42.50
4097;DHT22;2062;50.694;7.246;2023-03-01T09:56:57;8.40;41.00
4097;DHT22;2062;50.694;7.246;2023-03-01T09:59:27;8.50;40.70
4097;DHT22;2062;50.694;7.246;2023-03-01T10:02:00;8.70;40.40
4097;DHT22;2062;50.694;7.246;2023-03-01T10:04:43;8.70;39.90
4097;DHT22;2062;50.694;7.246;2023-03-01T10:07:26;8.90;39.80
4097;DHT22;2062;50.694;7.246;2023-03-01T10:09:53;8.90;39.30
4097;DHT22;2062;50.694;7.246;2023-03-01T10:12:24;9.00;39.60
4097;DHT22;2062;50.694;7.246;2023-03-01T10:14:58;9.20;39.40
4097;DHT22;2062;50.694;7.246;2023-03-01T10:17:32;9.30;39.40
4097;DHT22;2062;50.694;7.246;2023-03-01T10:20:14;9.40;39.20
4097;DHT22;2062;50.694;7.246;2023-03-01T10:22:42;9.50;39.40
4097;DHT22;2062;50.694;7.246;2023-03-01T10:25:14;9.60;39.40
4097;DHT22;2062;50.694;7.246;2023-03-01T10:27:49;9.70;39.00
4097;DHT22;2062;50.694;7.246;2023-03-01T10:30:20;9.80;39.30
4097;DHT22;2062;50.694;7.246;2023-03-01T10:32:50;9.90;38.40
4097;DHT22;2062;50.694;7.246;2023-03-01T10:35:23;10.00;38.30
4097;DHT22;2062;50.694;7.246;2023-03-01T10:37:57;10.10;37.90
4097;DHT22;2062;50.694;7.246;2023-03-01T10:40:24;10.10;38.30
4097;DHT22;2062;50.694;7.246;2023-03-01T10:42:51;10.20;38.60
4097;DHT22;2062;50.694;7.246;2023-03-01T10:45:31;10.30;38.30
4097;DHT22;2062;50.694;7.246;2023-03-01T10:48:10;10.40;38.50
4097;DHT22;2062;50.694;7.246;2023-03-01T10:50:40;10.50;38.50
4097;DHT22;2062;50.694;7.246;2023-03-01T10:53:20;10.60;38.30
4097;DHT22;2062;50.694;7.246;2023-03-01T10:55:57;10.60;38.90
4097;DHT22;2062;50.694;7.246;2023-03-01T10:58:24;10.70;38.60
4097;DHT22;2062;50.694;7.246;2023-03-01T11:00:52;10.80;37.90
4097;DHT22;2062;50.694;7.246;2023-03-01T11:03:22;10.90;37.30
4097;DHT22;2062;50.694;7.246;2023-03-01T11:05:55;10.90;37.90
4097;DHT22;2062;50.694;7.246;2023-03-01T11:08:46;11.00;38.40
4097;DHT22;2062;50.694;7.246;2023-03-01T11:11:21;11.10;38.70
4097;DHT22;2062;50.694;7.246;2023-03-01T11:13:53;11.10;37.60
4097;DHT22;2062;50.694;7.246;2023-03-01T11:16:25;11.20;37.80
4097;DHT22;2062;50.694;7.246;2023-03-01T11:19:00;11.30;38.10
4097;DHT22;2062;50.694;7.246;2023-03-01T11:21:30;11.40;38.40
4097;DHT22;2062;50.694;7.246;2023-03-01T11:24:00;11.50;37.30
4097;DHT22;2062;50.694;7.246;2023-03-01T11:26:28;11.50;36.80
4097;DHT22;2062;50.694;7.246;2023-03-01T11:29:02;11.50;36.70
4097;DHT22;2062;50.694;7.246;2023-03-01T11:31:31;11.60;36.70
4097;DHT22;2062;50.694;7.246;2023-03-01T11:34:04;11.50;36.00
4097;DHT22;2062;50.694;7.246;2023-03-01T11:36:39;11.50;36.10
4097;DHT22;2062;50.694;7.246;2023-03-01T11:39:18;11.60;35.00
4097;DHT22;2062;50.694;7.246;2023-03-01T11:41:49;11.60;35.80
4097;DHT22;2062;50.694;7.246;2023-03-01T11:44:21;11.60;35.80
4097;DHT22;2062;50.694;7.246;2023-03-01T11:47:12;11.60;35.60
4097;DHT22;2062;50.694;7.246;2023-03-01T11:49:53;11.60;36.20
4097;DHT22;2062;50.694;7.246;2023-03-01T11:52:32;11.70;36.60
4097;DHT22;2062;50.694;7.246;2023-03-01T11:55:17;11.70;36.70
4097;DHT22;2062;50.694;7.246;2023-03-01T11:58:08;11.70;36.00
4097;DHT22;2062;50.694;7.246;2023-03-01T12:00:57;11.80;36.10
4097;DHT22;2062;50.694;7.246;2023-03-01T12:03:33;11.80;35.70
4097;DHT22;2062;50.694;7.246;2023-03-01T12:06:35;11.90;35.30
4097;DHT22;2062;50.694;7.246;2023-03-01T12:09:21;11.90;35.20
4097;DHT22;2062;50.694;7.246;2023-03-01T12:12:14;12.00;34.70
4097;DHT22;2062;50.694;7.246;2023-03-01T12:14:55;12.00;35.20
4097;DHT22;2062;50.694;7.246;2023-03-01T12:17:56;12.10;34.90
4097;DHT22;2062;50.694;7.246;2023-03-01T12:20:29;12.10;35.10
4097;DHT22;2062;50.694;7.246;2023-03-01T12:23:22;12.10;34.40
4097;DHT22;2062;50.694;7.246;2023-03-01T12:25:57;12.20;34.80
4097;DHT22;2062;50.694;7.246;2023-03-01T12:28:48;12.20;33.30
4097;DHT22;2062;50.694;7.246;2023-03-01T12:34:33;12.30;34.60
4097;DHT22;2062;50.694;7.246;2023-03-01T12:37:17;12.40;34.00
4097;DHT22;2062;50.694;7.246;2023-03-01T12:40:03;12.40;34.00
4097;DHT22;2062;50.694;7.246;2023-03-01T12:42:46;12.40;33.00
4097;DHT22;2062;50.694;7.246;2023-03-01T12:45:31;12.40;32.20
4097;DHT22;2062;50.694;7.246;2023-03-01T12:50:58;12.50;33.70
4097;DHT22;2062;50.694;7.246;2023-03-01T12:53:29;12.50;34.00
4097;DHT22;2062;50.694;7.246;2023-03-01T12:56:00;12.60;32.90
4097;DHT22;2062;50.694;7.246;2023-03-01T12:58:32;12.60;32.50
4097;DHT22;2062;50.694;7.246;2023-03-01T13:01:07;12.70;33.00
4097;DHT22;2062;50.694;7.246;2023-03-01T13:03:52;12.70;33.20
4097;DHT22;2062;50.694;7.246;2023-03-01T13:06:27;12.80;33.40
4097;DHT22;2062;50.694;7.246;2023-03-01T13:08:58;12.80;33.30
4097;DHT22;2062;50.694;7.246;2023-03-01T13:11:29;12.90;32.40
4097;DHT22;2062;50.694;7.246;2023-03-01T13:16:54;13.10;33.60
4097;DHT22;2062;50.694;7.246;2023-03-01T13:19:22;13.20;32.70
4097;DHT22;2062;50.694;7.246;2023-03-01T13:21:51;13.20;32.30
4097;DHT22;2062;50.694;7.246;2023-03-01T13:24:27;13.20;31.50
4097;DHT22;2062;50.694;7.246;2023-03-01T13:27:18;13.30;33.00
4097;DHT22;2062;50.694;7.246;2023-03-01T13:29:49;13.30;33.10
4097;DHT22;2062;50.694;7.246;2023-03-01T13:32:22;13.40;32.50
4097;DHT22;2062;50.694;7.246;2023-03-01T13:34:51;13.50;31.80
4097;DHT22;2062;50.694;7.246;2023-03-01T13:42:47;13.50;32.10
4097;DHT22;2062;50.694;7.246;2023-03-01T13:45:19;13.60;32.00
4097;DHT22;2062;50.694;7.246;2023-03-01T13:47:50;13.60;31.60
4097;DHT22;2062;50.694;7.246;2023-03-01T13:50:21;13.70;32.50
4097;DHT22;2062;50.694;7.246;2023-03-01T13:52:55;13.70;32.00
4097;DHT22;2062;50.694;7.246;2023-03-01T13:55:29;13.70;32.20
4097;DHT22;2062;50.694;7.246;2023-03-01T13:58:00;13.80;32.10
4097;DHT22;2062;50.694;7.246;2023-03-01T14:00:31;13.80;31.70
4097;DHT22;2062;50.694;7.246;2023-03-01T14:03:14;13.90;32.00
4097;DHT22;2062;50.694;7.246;2023-03-01T14:05:43;13.90;32.30
4097;DHT22;2062;50.694;7.246;2023-03-01T14:08:20;14.10;32.00
4097;DHT22;2062;50.694;7.246;2023-03-01T14:10:58;14.10;32.20
4097;DHT22;2062;50.694;7.246;2023-03-01T14:13:39;14.10;31.60
4097;DHT22;2062;50.694;7.246;2023-03-01T14:16:19;14.20;31.40
4097;DHT22;2062;50.694;7.246;2023-03-01T14:18:58;14.30;31.40
4097;DHT22;2062;50.694;7.246;2023-03-01T14:21:29;14.30;30.70
4097;DHT22;2062;50.694;7.246;2023-03-01T14:23:57;14.20;29.80
4097;DHT22;2062;50.694;7.246;2023-03-01T14:26:24;14.20;30.30
4097;DHT22;2062;50.694;7.246;2023-03-01T14:28:51;14.20;30.10
4097;DHT22;2062;50.694;7.246;2023-03-01T14:31:39;14.20;30.10
4097;DHT22;2062;50.694;7.246;2023-03-01T14:34:18;14.20;29.60
4097;DHT22;2062;50.694;7.246;2023-03-01T14:36:45;14.20;29.20
4097;DHT22;2062;50.694;7.246;2023-03-01T14:39:16;14.10;29.90
4097;DHT22;2062;50.694;7.246;2023-03-01T14:41:44;14.10;29.70
4097;DHT22;2062;50.694;7.246;2023-03-01T14:44:15;14.10;30.20
4097;DHT22;2062;50.694;7.246;2023-03-01T14:46:45;14.30;29.90
4097;DHT22;2062;50.694;7.246;2023-03-01T14:49:17;14.10;29.50
4097;DHT22;2062;50.694;7.246;2023-03-01T14:51:50;14.10;30.00
4097;DHT22;2062;50.694;7.246;2023-03-01T14:54:21;14.10;29.70
4097;DHT22;2062;50.694;7.246;2023-03-01T14:56:50;14.10;29.70
4097;DHT22;2062;50.694;7.246;2023-03-01T14:59:24;14.20;29.90
4097;DHT22;2062;50.694;7.246;2023-03-01T15:01:53;14.20;30.00
4097;DHT22;2062;50.694;7.246;2023-03-01T15:04:23;14.20;29.40
4097;DHT22;2062;50.694;7.246;2023-03-01T15:06:52;14.20;29.20
4097;DHT22;2062;50.694;7.246;2023-03-01T15:09:19;14.10;29.00
4097;DHT22;2062;50.694;7.246;2023-03-01T15:11:48;14.10;29.00
4097;DHT22;2062;50.694;7.246;2023-03-01T15:14:29;14.10;28.60
4097;DHT22;2062;50.694;7.246;2023-03-01T15:16:56;14.10;28.10
4097;DHT22;2062;50.694;7.246;2023-03-01T15:19:27;14.10;28.60
4097;DHT22;2062;50.694;7.246;2023-03-01T15:21:55;14.10;28.90
4097;DHT22;2062;50.694;7.246;2023-03-01T15:24:25;14.10;29.00
4097;DHT22;2062;50.694;7.246;2023-03-01T15:26:56;14.00;28.50
4097;DHT22;2062;50.694;7.246;2023-03-01T15:29:28;14.10;28.70
4097;DHT22;2062;50.694;7.246;2023-03-01T15:31:58;14.00;28.70
4097;DHT22;2062;50.694;7.246;2023-03-01T15:34:29;13.90;28.90
4097;DHT22;2062;50.694;7.246;2023-03-01T15:36:57;13.90;29.00
4097;DHT22;2062;50.694;7.246;2023-03-01T15:39:38;13.90;28.80
4097;DHT22;2062;50.694;7.246;2023-03-01T15:42:10;13.90;28.70
4097;DHT22;2062;50.694;7.246;2023-03-01T15:44:38;13.80;28.80
4097;DHT22;2062;50.694;7.246;2023-03-01T15:47:23;13.80;28.60
4097;DHT22;2062;50.694;7.246;2023-03-01T15:49:54;13.80;28.30
4097;DHT22;2062;50.694;7.246;2023-03-01T15:52:24;13.70;28.40
4097;DHT22;2062;50.694;7.246;2023-03-01T15:54:55;13.70;28.50
4097;DHT22;2062;50.694;7.246;2023-03-01T15:57:22;13.60;28.80
4097;DHT22;2062;50.694;7.246;2023-03-01T15:59:49;13.60;28.60
4097;DHT22;2062;50.694;7.246;2023-03-01T16:02:16;13.60;28.30
4097;DHT22;2062;50.694;7.246;2023-03-01T16:04:43;13.50;27.80
4097;DHT22;2062;50.694;7.246;2023-03-01T16:07:11;13.50;27.70
4097;DHT22;2062;50.694;7.246;2023-03-01T16:09:37;13.40;27.50
4097;DHT22;2062;50.694;7.246;2023-03-01T16:12:05;13.30;27.80
4097;DHT22;2062;50.694;7.246;2023-03-01T16:14:32;13.30;27.70
4097;DHT22;2062;50.694;7.246;2023-03-01T16:16:59;13.20;27.70
4097;DHT22;2062;50.694;7.246;2023-03-01T16:19:26;13.10;27.50
4097;DHT22;2062;50.694;7.246;2023-03-01T16:21:53;13.10;27.30
4097;DHT22;2062;50.694;7.246;2023-03-01T16:24:21;13.00;26.90
4097;DHT22;2062;50.694;7.246;2023-03-01T16:26:48;12.90;27.00
4097;DHT22;2062;50.694;7.246;2023-03-01T16:29:15;12.80;27.20
4097;DHT22;2062;50.694;7.246;2023-03-01T16:31:42;12.70;26.90
4097;DHT22;2062;50.694;7.246;2023-03-01T16:34:09;12.60;27.30
4097;DHT22;2062;50.694;7.246;2023-03-01T16:36:35;12.50;26.70
4097;DHT22;2062;50.694;7.246;2023-03-01T16:39:02;12.40;26.80
4097;DHT22;2062;50.694;7.246;2023-03-01T16:41:31;12.40;26.50